sensor_id;sensor_type;location;lat;lon;timestamp;P1;durP1;ratioP1;P2;durP2;ratioP2
26562;SDS011;14217;50.986;5.826;2022-11-11T00:02:09;0.52;;;0.30;;
26562;SDS011;14217;50.986;5.826;2022-11-11T00:07:11;1.60;;;0.50;;
26562;SDS011;14217;50.986;5.826;2022-11-11T00:12:13;5.60;;;0.82;;
26562;SDS011;14217;50.986;5.826;2022-11-11T00:17:18;2.78;;;0.68;;
26562;SDS011;14217;50.986;5.826;2022-11-11T00:22:38;2.00;;;0.55;;
26562;SDS011;14217;50.986;5.826;2022-11-11T00:27:59;2.92;;;0.70;;
26562;SDS011;14217;50.986;5.826;2022-11-11T00:33:01;2.28;;;0.88;;
26562;SDS011;14217;50.986;5.826;2022-11-11T00:38:07;2.40;;;0.90;;
26562;SDS011;14217;50.986;5.826;2022-11-11T00:43:10;2.13;;;0.60;;
26562;SDS011;14217;50.986;5.826;2022-11-11T00:48:11;0.95;;;0.43;;
26562;SDS011;14217;50.986;5.826;2022-11-11T00:53:31;2.45;;;0.50;;
26562;SDS011;14217;50.986;5.826;2022-11-11T00:58:35;1.17;;;0.68;;
26562;SDS011;14217;50.986;5.826;2022-11-11T01:03:37;5.07;;;0.93;;
26562;SDS011;14217;50.986;5.826;2022-11-11T01:08:42;1.30;;;0.80;;
26562;SDS011;14217;50.986;5.826;2022-11-11T01:13:44;7.53;;;0.75;;
26562;SDS011;14217;50.986;5.826;2022-11-11T01:18:46;4.93;;;0.65;;
26562;SDS011;14217;50.986;5.826;2022-11-11T01:23:49;2.60;;;0.63;;
26562;SDS011;14217;50.986;5.826;2022-11-11T01:28:53;1.02;;;0.68;;
26562;SDS011;14217;50.986;5.826;2022-11-11T01:33:56;2.05;;;0.52;;
26562;SDS011;14217;50.986;5.826;2022-11-11T01:38:59;2.22;;;1.13;;
26562;SDS011;14217;50.986;5.826;2022-11-11T01:59:38;8.77;;;1.05;;
26562;SDS011;14217;50.986;5.826;2022-11-11T02:04:43;3.10;;;0.52;;
26562;SDS011;14217;50.986;5.826;2022-11-11T02:10:04;1.63;;;0.55;;
26562;SDS011;14217;50.986;5.826;2022-11-11T02:15:09;2.13;;;0.55;;
26562;SDS011;14217;50.986;5.826;2022-11-11T02:20:14;1.38;;;0.80;;
26562;SDS011;14217;50.986;5.826;2022-11-11T02:25:22;1.85;;;0.90;;
26562;SDS011;14217;50.986;5.826;2022-11-11T02:30:28;5.78;;;0.55;;
26562;SDS011;14217;50.986;5.826;2022-11-11T02:35:31;2.53;;;1.23;;
26562;SDS011;14217;50.986;5.826;2022-11-11T02:40:35;1.75;;;0.70;;
26562;SDS011;14217;50.986;5.826;2022-11-11T02:45:37;3.03;;;0.50;;
26562;SDS011;14217;50.986;5.826;2022-11-11T02:50:39;1.70;;;0.77;;
26562;SDS011;14217;50.986;5.826;2022-11-11T02:55:41;1.80;;;0.75;;
26562;SDS011;14217;50.986;5.826;2022-11-11T03:00:43;2.67;;;0.80;;
26562;SDS011;14217;50.986;5.826;2022-11-11T03:05:45;4.57;;;1.08;;
26562;SDS011;14217;50.986;5.826;2022-11-11T03:10:47;3.15;;;0.82;;
26562;SDS011;14217;50.986;5.826;2022-11-11T03:15:49;1.30;;;0.85;;
26562;SDS011;14217;50.986;5.826;2022-11-11T03:20:51;0.75;;;0.40;;
26562;SDS011;14217;50.986;5.826;2022-11-11T03:26:25;2.40;;;0.75;;
26562;SDS011;14217;50.986;5.826;2022-11-11T03:31:27;5.57;;;0.90;;
26562;SDS011;14217;50.986;5.826;2022-11-11T03:36:29;1.08;;;0.55;;
26562;SDS011;14217;50.986;5.826;2022-11-11T03:41:51;2.97;;;1.38;;
26562;SDS011;14217;50.986;5.826;2022-11-11T03:46:53;0.68;;;0.50;;
26562;SDS011;14217;50.986;5.826;2022-11-11T03:51:55;1.85;;;0.60;;
26562;SDS011;14217;50.986;5.826;2022-11-11T03:56:57;1.17;;;0.60;;
26562;SDS011;14217;50.986;5.826;2022-11-11T04:02:18;1.00;;;0.60;;
26562;SDS011;14217;50.986;5.826;2022-11-11T04:07:39;7.13;;;0.82;;
26562;SDS011;14217;50.986;5.826;2022-11-11T04:12:59;1.30;;;0.85;;
26562;SDS011;14217;50.986;5.826;2022-11-11T04:18:20;2.13;;;0.77;;
26562;SDS011;14217;50.986;5.826;2022-11-11T04:23:42;1.48;;;1.15;;
26562;SDS011;14217;50.986;5.826;2022-11-11T04:28:44;2.78;;;1.08;;
26562;SDS011;14217;50.986;5.826;2022-11-11T04:34:04;3.00;;;1.30;;
26562;SDS011;14217;50.986;5.826;2022-11-11T04:39:06;1.48;;;0.70;;
26562;SDS011;14217;50.986;5.826;2022-11-11T04:44:26;1.90;;;0.57;;
26562;SDS011;14217;50.986;5.826;2022-11-11T04:49:47;1.83;;;0.68;;
26562;SDS011;14217;50.986;5.826;2022-11-11T04:54:49;0.93;;;0.38;;
26562;SDS011;14217;50.986;5.826;2022-11-11T05:00:11;1.08;;;0.40;;
26562;SDS011;14217;50.986;5.826;2022-11-11T05:05:15;1.80;;;0.63;;
26562;SDS011;14217;50.986;5.826;2022-11-11T05:10:16;2.05;;;0.40;;
26562;SDS011;14217;50.986;5.826;2022-11-11T05:15:18;2.40;;;0.65;;
26562;SDS011;14217;50.986;5.826;2022-11-11T05:20:59;2.58;;;0.80;;
26562;SDS011;14217;50.986;5.826;2022-11-11T05:26:20;1.35;;;0.35;;
26562;SDS011;14217;50.986;5.826;2022-11-11T05:31:22;4.32;;;1.00;;
26562;SDS011;14217;50.986;5.826;2022-11-11T05:36:24;2.30;;;0.73;;
26562;SDS011;14217;50.986;5.826;2022-11-11T05:41:26;1.38;;;0.52;;
26562;SDS011;14217;50.986;5.826;2022-11-11T05:46:28;0.90;;;0.70;;
26562;SDS011;14217;50.986;5.826;2022-11-11T05:51:30;3.20;;;0.80;;
26562;SDS011;14217;50.986;5.826;2022-11-11T05:56:39;1.67;;;0.80;;
26562;SDS011;14217;50.986;5.826;2022-11-11T06:01:41;2.67;;;1.52;;
26562;SDS011;14217;50.986;5.826;2022-11-11T06:06:43;2.03;;;0.68;;
26562;SDS011;14217;50.986;5.826;2022-11-11T06:11:45;2.00;;;0.90;;
26562;SDS011;14217;50.986;5.826;2022-11-11T06:16:47;2.10;;;1.05;;
26562;SDS011;14217;50.986;5.826;2022-11-11T06:21:49;2.08;;;1.08;;
26562;SDS011;14217;50.986;5.826;2022-11-11T06:26:57;1.80;;;1.30;;
26562;SDS011;14217;50.986;5.826;2022-11-11T06:32:00;1.38;;;0.57;;
26562;SDS011;14217;50.986;5.826;2022-11-11T06:37:02;4.80;;;1.08;;
26562;SDS011;14217;50.986;5.826;2022-11-11T06:42:03;0.85;;;0.43;;
26562;SDS011;14217;50.986;5.826;2022-11-11T06:47:05;1.33;;;0.70;;
26562;SDS011;14217;50.986;5.826;2022-11-11T06:52:07;3.00;;;0.65;;
26562;SDS011;14217;50.986;5.826;2022-11-11T06:57:10;4.00;;;0.65;;
26562;SDS011;14217;50.986;5.826;2022-11-11T07:02:12;4.50;;;1.20;;
26562;SDS011;14217;50.986;5.826;2022-11-11T07:07:14;2.10;;;0.73;;
26562;SDS011;14217;50.986;5.826;2022-11-11T07:12:18;1.83;;;0.55;;
26562;SDS011;14217;50.986;5.826;2022-11-11T07:17:20;3.78;;;0.90;;
26562;SDS011;14217;50.986;5.826;2022-11-11T07:22:22;2.10;;;0.95;;
26562;SDS011;14217;50.986;5.826;2022-11-11T07:27:24;0.52;;;0.47;;
26562;SDS011;14217;50.986;5.826;2022-11-11T07:32:26;7.32;;;1.08;;
26562;SDS011;14217;50.986;5.826;2022-11-11T07:37:29;2.75;;;1.05;;
26562;SDS011;14217;50.986;5.826;2022-11-11T07:42:31;1.38;;;0.80;;
26562;SDS011;14217;50.986;5.826;2022-11-11T07:47:35;4.10;;;0.90;;
26562;SDS011;14217;50.986;5.826;2022-11-11T07:52:37;2.10;;;0.60;;
26562;SDS011;14217;50.986;5.826;2022-11-11T07:57:40;6.07;;;1.17;;
26562;SDS011;14217;50.986;5.826;2022-11-11T08:02:45;8.73;;;1.20;;
26562;SDS011;14217;50.986;5.826;2022-11-11T08:07:48;4.40;;;0.93;;
26562;SDS011;14217;50.986;5.826;2022-11-11T08:12:53;2.47;;;0.60;;
26562;SDS011;14217;50.986;5.826;2022-11-11T08:18:15;3.22;;;0.70;;
26562;SDS011;14217;50.986;5.826;2022-11-11T08:23:17;6.07;;;1.23;;
26562;SDS011;14217;50.986;5.826;2022-11-11T08:28:45;1.75;;;1.60;;
26562;SDS011;14217;50.986;5.826;2022-11-11T08:33:47;5.97;;;1.02;;
26562;SDS011;14217;50.986;5.826;2022-11-11T08:38:50;7.05;;;1.08;;
26562;SDS011;14217;50.986;5.826;2022-11-11T08:43:52;2.92;;;0.70;;
26562;SDS011;14217;50.986;5.826;2022-11-11T08:48:55;1.70;;;0.85;;
26562;SDS011;14217;50.986;5.826;2022-11-11T08:53:57;1.55;;;0.90;;
26562;SDS011;14217;50.986;5.826;2022-11-11T08:59:01;2.22;;;1.02;;
26562;SDS011;14217;50.986;5.826;2022-11-11T09:04:03;3.65;;;1.00;;
26562;SDS011;14217;50.986;5.826;2022-11-11T09:09:25;1.50;;;0.73;;
26562;SDS011;14217;50.986;5.826;2022-11-11T09:14:27;2.70;;;1.30;;
26562;SDS011;14217;50.986;5.826;2022-11-11T09:19:29;7.10;;;1.27;;
26562;SDS011;14217;50.986;5.826;2022-11-11T09:24:31;7.22;;;0.80;;
26562;SDS011;14217;50.986;5.826;2022-11-11T09:29:34;5.10;;;0.75;;
26562;SDS011;14217;50.986;5.826;2022-11-11T09:34:36;4.97;;;0.98;;
26562;SDS011;14217;50.986;5.826;2022-11-11T09:39:38;3.88;;;1.23;;
26562;SDS011;14217;50.986;5.826;2022-11-11T10:00:42;5.25;;;1.00;;
26562;SDS011;14217;50.986;5.826;2022-11-11T10:05:50;11.88;;;1.50;;
26562;SDS011;14217;50.986;5.826;2022-11-11T10:11:52;3.35;;;0.70;;
26562;SDS011;14217;50.986;5.826;2022-11-11T10:21:52;1.70;;;0.60;;
26562;SDS011;14217;50.986;5.826;2022-11-11T10:27:14;2.47;;;0.70;;
26562;SDS011;14217;50.986;5.826;2022-11-11T10:37:33;4.38;;;1.00;;
26562;SDS011;14217;50.986;5.826;2022-11-11T10:42:40;1.45;;;0.80;;
26562;SDS011;14217;50.986;5.826;2022-11-11T10:47:46;8.43;;;0.85;;
26562;SDS011;14217;50.986;5.826;2022-11-11T10:58:06;3.22;;;0.85;;
26562;SDS011;14217;50.986;5.826;2022-11-11T11:03:42;2.28;;;0.70;;
26562;SDS011;14217;50.986;5.826;2022-11-11T11:08:51;5.60;;;0.85;;
26562;SDS011;14217;50.986;5.826;2022-11-11T11:14:04;7.65;;;1.15;;
26562;SDS011;14217;50.986;5.826;2022-11-11T11:19:13;1.55;;;0.45;;
26562;SDS011;14217;50.986;5.826;2022-11-11T11:24:29;5.70;;;0.85;;
26562;SDS011;14217;50.986;5.826;2022-11-11T11:29:33;8.02;;;0.80;;
26562;SDS011;14217;50.986;5.826;2022-11-11T11:34:46;5.97;;;0.57;;
26562;SDS011;14217;50.986;5.826;2022-11-11T11:39:59;1.75;;;0.93;;
26562;SDS011;14217;50.986;5.826;2022-11-11T11:50:35;1.02;;;0.55;;
26562;SDS011;14217;50.986;5.826;2022-11-11T11:55:43;1.50;;;0.57;;
26562;SDS011;14217;50.986;5.826;2022-11-11T12:01:04;4.88;;;0.60;;
26562;SDS011;14217;50.986;5.826;2022-11-11T12:17:39;0.95;;;0.40;;
26562;SDS011;14217;50.986;5.826;2022-11-11T12:22:44;1.20;;;0.50;;
26562;SDS011;14217;50.986;5.826;2022-11-11T12:33:15;1.60;;;0.57;;
26562;SDS011;14217;50.986;5.826;2022-11-11T12:38:24;0.80;;;0.40;;
26562;SDS011;14217;50.986;5.826;2022-11-11T12:54:19;0.32;;;0.32;;
26562;SDS011;14217;50.986;5.826;2022-11-11T13:15:35;2.10;;;0.75;;
26562;SDS011;14217;50.986;5.826;2022-11-11T13:25:52;1.60;;;0.55;;
26562;SDS011;14217;50.986;5.826;2022-11-11T13:36:26;0.88;;;0.68;;
26562;SDS011;14217;50.986;5.826;2022-11-11T13:41:31;0.82;;;0.45;;
26562;SDS011;14217;50.986;5.826;2022-11-11T13:46:43;1.95;;;0.65;;
26562;SDS011;14217;50.986;5.826;2022-11-11T13:51:57;1.50;;;0.55;;
26562;SDS011;14217;50.986;5.826;2022-11-11T13:57:04;0.45;;;0.40;;
26562;SDS011;14217;50.986;5.826;2022-11-11T14:02:30;4.13;;;0.40;;
26562;SDS011;14217;50.986;5.826;2022-11-11T14:12:51;1.77;;;0.80;;
26562;SDS011;14217;50.986;5.826;2022-11-11T14:17:54;2.45;;;0.75;;
26562;SDS011;14217;50.986;5.826;2022-11-11T14:28:39;5.93;;;0.55;;
26562;SDS011;14217;50.986;5.826;2022-11-11T14:34:00;3.97;;;0.80;;
26562;SDS011;14217;50.986;5.826;2022-11-11T15:00:18;3.10;;;0.70;;
26562;SDS011;14217;50.986;5.826;2022-11-11T15:10:38;6.30;;;0.98;;
26562;SDS011;14217;50.986;5.826;2022-11-11T15:21:16;4.97;;;1.27;;
26562;SDS011;14217;50.986;5.826;2022-11-11T15:37:05;1.23;;;0.57;;
26562;SDS011;14217;50.986;5.826;2022-11-11T15:42:12;3.63;;;0.95;;
26562;SDS011;14217;50.986;5.826;2022-11-11T15:47:39;9.88;;;0.70;;
26562;SDS011;14217;50.986;5.826;2022-11-11T15:52:41;12.82;;;1.15;;
26562;SDS011;14217;50.986;5.826;2022-11-11T15:57:43;7.68;;;0.77;;
26562;SDS011;14217;50.986;5.826;2022-11-11T16:02:45;2.25;;;0.80;;
26562;SDS011;14217;50.986;5.826;2022-11-11T16:07:48;1.25;;;0.68;;
26562;SDS011;14217;50.986;5.826;2022-11-11T16:18:10;3.10;;;0.90;;
26562;SDS011;14217;50.986;5.826;2022-11-11T16:23:18;3.10;;;0.85;;
26562;SDS011;14217;50.986;5.826;2022-11-11T16:28:22;1.63;;;0.80;;
26562;SDS011;14217;50.986;5.826;2022-11-11T16:38:30;2.55;;;0.93;;
26562;SDS011;14217;50.986;5.826;2022-11-11T16:43:33;2.35;;;1.00;;
26562;SDS011;14217;50.986;5.826;2022-11-11T16:48:44;1.67;;;0.75;;
26562;SDS011;14217;50.986;5.826;2022-11-11T16:53:51;2.90;;;0.80;;
26562;SDS011;14217;50.986;5.826;2022-11-11T16:59:05;1.52;;;1.00;;
26562;SDS011;14217;50.986;5.826;2022-11-11T17:04:12;3.38;;;0.80;;
26562;SDS011;14217;50.986;5.826;2022-11-11T17:09:27;3.58;;;1.67;;
26562;SDS011;14217;50.986;5.826;2022-11-11T17:14:38;4.70;;;0.98;;
26562;SDS011;14217;50.986;5.826;2022-11-11T17:19:40;5.88;;;1.15;;
26562;SDS011;14217;50.986;5.826;2022-11-11T17:24:41;2.60;;;1.20;;
26562;SDS011;14217;50.986;5.826;2022-11-11T17:29:44;9.10;;;1.27;;
26562;SDS011;14217;50.986;5.826;2022-11-11T17:34:45;6.95;;;1.45;;
26562;SDS011;14217;50.986;5.826;2022-11-11T17:39:47;2.65;;;1.40;;
26562;SDS011;14217;50.986;5.826;2022-11-11T17:44:49;3.28;;;1.98;;
26562;SDS011;14217;50.986;5.826;2022-11-11T17:49:51;2.67;;;1.15;;
26562;SDS011;14217;50.986;5.826;2022-11-11T17:54:57;2.28;;;1.20;;
26562;SDS011;14217;50.986;5.826;2022-11-11T17:59:59;2.90;;;1.33;;
26562;SDS011;14217;50.986;5.826;2022-11-11T18:05:01;2.83;;;1.25;;
26562;SDS011;14217;50.986;5.826;2022-11-11T18:10:03;1.85;;;1.05;;
26562;SDS011;14217;50.986;5.826;2022-11-11T18:15:06;1.67;;;1.33;;
26562;SDS011;14217;50.986;5.826;2022-11-11T18:20:08;2.22;;;1.48;;
26562;SDS011;14217;50.986;5.826;2022-11-11T18:25:11;2.25;;;1.13;;
26562;SDS011;14217;50.986;5.826;2022-11-11T18:30:14;1.80;;;1.05;;
26562;SDS011;14217;50.986;5.826;2022-11-11T18:35:16;1.90;;;1.10;;
26562;SDS011;14217;50.986;5.826;2022-11-11T18:40:19;2.25;;;1.20;;
26562;SDS011;14217;50.986;5.826;2022-11-11T18:45:20;2.38;;;1.40;;
26562;SDS011;14217;50.986;5.826;2022-11-11T18:50:24;7.15;;;2.70;;
26562;SDS011;14217;50.986;5.826;2022-11-11T18:55:26;4.93;;;2.67;;
26562;SDS011;14217;50.986;5.826;2022-11-11T19:00:28;8.55;;;2.65;;
26562;SDS011;14217;50.986;5.826;2022-11-11T19:05:30;3.33;;;2.50;;
26562;SDS011;14217;50.986;5.826;2022-11-11T19:10:32;9.38;;;2.13;;
26562;SDS011;14217;50.986;5.826;2022-11-11T19:15:34;2.85;;;2.10;;
26562;SDS011;14217;50.986;5.826;2022-11-11T19:20:36;7.53;;;2.20;;
26562;SDS011;14217;50.986;5.826;2022-11-11T19:25:38;7.63;;;1.70;;
26562;SDS011;14217;50.986;5.826;2022-11-11T19:30:40;8.43;;;2.90;;
26562;SDS011;14217;50.986;5.826;2022-11-11T19:35:42;4.45;;;2.08;;
26562;SDS011;14217;50.986;5.826;2022-11-11T19:40:44;6.35;;;2.85;;
26562;SDS011;14217;50.986;5.826;2022-11-11T19:45:47;8.07;;;2.25;;
26562;SDS011;14217;50.986;5.826;2022-11-11T19:50:49;11.95;;;3.10;;
26562;SDS011;14217;50.986;5.826;2022-11-11T19:55:58;5.85;;;2.03;;
26562;SDS011;14217;50.986;5.826;2022-11-11T20:06:27;4.57;;;2.20;;
26562;SDS011;14217;50.986;5.826;2022-11-11T20:11:31;6.85;;;2.33;;
26562;SDS011;14217;50.986;5.826;2022-11-11T20:16:34;8.75;;;2.15;;
26562;SDS011;14217;50.986;5.826;2022-11-11T20:21:36;4.65;;;2.50;;
26562;SDS011;14217;50.986;5.826;2022-11-11T20:26:39;3.40;;;2.42;;
26562;SDS011;14217;50.986;5.826;2022-11-11T20:31:41;5.30;;;2.55;;
26562;SDS011;14217;50.986;5.826;2022-11-11T20:36:43;9.18;;;2.80;;
26562;SDS011;14217;50.986;5.826;2022-11-11T20:41:45;8.23;;;2.08;;
26562;SDS011;14217;50.986;5.826;2022-11-11T20:46:47;3.88;;;3.08;;
26562;SDS011;14217;50.986;5.826;2022-11-11T20:51:49;3.58;;;2.63;;
26562;SDS011;14217;50.986;5.826;2022-11-11T20:56:51;6.38;;;2.65;;
26562;SDS011;14217;50.986;5.826;2022-11-11T21:01:53;3.53;;;2.38;;
26562;SDS011;14217;50.986;5.826;2022-11-11T21:06:55;3.85;;;1.95;;
26562;SDS011;14217;50.986;5.826;2022-11-11T21:11:57;3.45;;;1.77;;
26562;SDS011;14217;50.986;5.826;2022-11-11T21:16:59;3.25;;;1.55;;
26562;SDS011;14217;50.986;5.826;2022-11-11T21:22:01;2.53;;;1.70;;
26562;SDS011;14217;50.986;5.826;2022-11-11T21:27:10;5.00;;;2.58;;
26562;SDS011;14217;50.986;5.826;2022-11-11T21:32:13;3.20;;;2.13;;
26562;SDS011;14217;50.986;5.826;2022-11-11T21:37:15;2.85;;;2.05;;
26562;SDS011;14217;50.986;5.826;2022-11-11T21:42:18;6.07;;;1.92;;
26562;SDS011;14217;50.986;5.826;2022-11-11T21:47:20;4.28;;;2.50;;
26562;SDS011;14217;50.986;5.826;2022-11-11T21:52:22;4.20;;;2.17;;
26562;SDS011;14217;50.986;5.826;2022-11-11T21:57:24;3.90;;;3.15;;
26562;SDS011;14217;50.986;5.826;2022-11-11T22:02:26;4.55;;;2.40;;
26562;SDS011;14217;50.986;5.826;2022-11-11T22:07:29;6.60;;;3.05;;
26562;SDS011;14217;50.986;5.826;2022-11-11T22:12:31;3.08;;;2.13;;
26562;SDS011;14217;50.986;5.826;2022-11-11T22:17:36;2.15;;;1.90;;
26562;SDS011;14217;50.986;5.826;2022-11-11T22:22:38;3.50;;;2.13;;
26562;SDS011;14217;50.986;5.826;2022-11-11T22:27:40;2.90;;;2.22;;
26562;SDS011;14217;50.986;5.826;2022-11-11T22:32:42;2.40;;;2.03;;
26562;SDS011;14217;50.986;5.826;2022-11-11T22:37:44;3.58;;;2.10;;
26562;SDS011;14217;50.986;5.826;2022-11-11T22:42:46;11.40;;;2.80;;
26562;SDS011;14217;50.986;5.826;2022-11-11T22:47:48;3.85;;;2.17;;
26562;SDS011;14217;50.986;5.826;2022-11-11T22:52:50;7.53;;;2.70;;
26562;SDS011;14217;50.986;5.826;2022-11-11T22:57:52;6.75;;;3.75;;
26562;SDS011;14217;50.986;5.826;2022-11-11T23:02:56;10.57;;;3.30;;
26562;SDS011;14217;50.986;5.826;2022-11-11T23:07:58;4.28;;;2.95;;
26562;SDS011;14217;50.986;5.826;2022-11-11T23:13:00;4.03;;;2.10;;
26562;SDS011;14217;50.986;5.826;2022-11-11T23:18:01;3.65;;;2.22;;
26562;SDS011;14217;50.986;5.826;2022-11-11T23:23:03;3.05;;;1.75;;
26562;SDS011;14217;50.986;5.826;2022-11-11T23:28:05;3.38;;;2.53;;
26562;SDS011;14217;50.986;5.826;2022-11-11T23:33:07;4.80;;;2.88;;
26562;SDS011;14217;50.986;5.826;2022-11-11T23:38:09;13.35;;;2.70;;
26562;SDS011;14217;50.986;5.826;2022-11-11T23:43:11;6.78;;;3.10;;
26562;SDS011;14217;50.986;5.826;2022-11-11T23:48:13;3.30;;;2.47;;
26562;SDS011;14217;50.986;5.826;2022-11-11T23:53:15;2.67;;;2.25;;
26562;SDS011;14217;50.986;5.826;2022-11-11T23:58:17;4.53;;;2.00;;
